sensor_id;sensor_type;location;lat;lon;timestamp;temperature;humidity
33931;DHT22;20215;53.130;6.408;2022-09-09T00:00:01;18.70;99.90
33931;DHT22;20215;53.130;6.408;2022-09-09T00:08:26;18.60;99.90
33931;DHT22;20215;53.130;6.408;2022-09-09T00:15:24;18.50;99.90
33931;DHT22;20215;53.130;6.408;2022-09-09T00:27:33;18.40;99.90
33931;DHT22;20215;53.130;6.408;2022-09-09T00:38:35;18.40;99.90
33931;DHT22;20215;53.130;6.408;2022-09-09T00:44:48;18.40;99.90
33931;DHT22;20215;53.130;6.408;2022-09-09T01:12:23;18.20;99.90
33931;DHT22;20215;53.130;6.408;2022-09-09T01:26:36;18.10;99.90
33931;DHT22;20215;53.130;6.408;2022-09-09T01:31:35;18.10;99.90
33931;DHT22;20215;53.130;6.408;2022-09-09T01:34:15;18.10;99.90
33931;DHT22;20215;53.130;6.408;2022-09-09T01:39:14;18.20;99.90
33931;DHT22;20215;53.130;6.408;2022-09-09T01:44:42;18.20;99.90
33931;DHT22;20215;53.130;6.408;2022-09-09T01:47:20;18.20;99.90
33931;DHT22;20215;53.130;6.408;2022-09-09T01:52:23;18.20;99.90
33931;DHT22;20215;53.130;6.408;2022-09-09T01:54:48;18.30;99.90
33931;DHT22;20215;53.130;6.408;2022-09-09T02:00:08;18.20;99.90
33931;DHT22;20215;53.130;6.408;2022-09-09T02:11:44;18.20;99.90
33931;DHT22;20215;53.130;6.408;2022-09-09T02:14:36;18.30;99.90
33931;DHT22;20215;53.130;6.408;2022-09-09T02:23:15;18.30;99.90
33931;DHT22;20215;53.130;6.408;2022-09-09T02:28:17;18.30;99.90
33931;DHT22;20215;53.130;6.408;2022-09-09T02:33:19;18.30;99.90
33931;DHT22;20215;53.130;6.408;2022-09-09T02:38:50;18.20;99.90
33931;DHT22;20215;53.130;6.408;2022-09-09T02:41:20;18.10;99.90
33931;DHT22;20215;53.130;6.408;2022-09-09T02:43:48;18.20;99.90
33931;DHT22;20215;53.130;6.408;2022-09-09T02:52:45;18.40;99.90
33931;DHT22;20215;53.130;6.408;2022-09-09T02:58:21;18.30;99.90
33931;DHT22;20215;53.130;6.408;2022-09-09T03:00:51;18.30;99.90
33931;DHT22;20215;53.130;6.408;2022-09-09T03:03:26;18.30;99.90
33931;DHT22;20215;53.130;6.408;2022-09-09T03:08:37;18.40;99.90
33931;DHT22;20215;53.130;6.408;2022-09-09T03:11:14;18.50;99.90
33931;DHT22;20215;53.130;6.408;2022-09-09T03:13:40;18.50;99.90
33931;DHT22;20215;53.130;6.408;2022-09-09T03:16:05;18.50;99.90
33931;DHT22;20215;53.130;6.408;2022-09-09T03:18:31;18.40;99.90
33931;DHT22;20215;53.130;6.408;2022-09-09T03:21:03;18.50;99.90
33931;DHT22;20215;53.130;6.408;2022-09-09T03:23:34;18.50;99.90
33931;DHT22;20215;53.130;6.408;2022-09-09T03:26:09;18.50;99.90
33931;DHT22;20215;53.130;6.408;2022-09-09T03:28:34;18.50;99.90
33931;DHT22;20215;53.130;6.408;2022-09-09T03:33:39;18.60;99.90
33931;DHT22;20215;53.130;6.408;2022-09-09T03:36:08;18.60;99.90
33931;DHT22;20215;53.130;6.408;2022-09-09T03:38:46;18.60;99.90
33931;DHT22;20215;53.130;6.408;2022-09-09T03:41:30;18.60;99.90
33931;DHT22;20215;53.130;6.408;2022-09-09T03:43:56;18.60;99.90
33931;DHT22;20215;53.130;6.408;2022-09-09T03:46:31;18.60;99.90
33931;DHT22;20215;53.130;6.408;2022-09-09T03:49:03;18.70;99.90
33931;DHT22;20215;53.130;6.408;2022-09-09T03:51:29;18.70;99.90
33931;DHT22;20215;53.130;6.408;2022-09-09T03:53:55;18.70;99.90
33931;DHT22;20215;53.130;6.408;2022-09-09T03:56:36;18.60;99.90
33931;DHT22;20215;53.130;6.408;2022-09-09T03:59:20;18.60;99.90
33931;DHT22;20215;53.130;6.408;2022-09-09T04:01:55;18.50;99.90
33931;DHT22;20215;53.130;6.408;2022-09-09T04:04:22;18.50;99.90
33931;DHT22;20215;53.130;6.408;2022-09-09T04:06:50;18.50;99.90
33931;DHT22;20215;53.130;6.408;2022-09-09T04:14:22;18.50;99.90
33931;DHT22;20215;53.130;6.408;2022-09-09T04:16:50;18.50;99.90
33931;DHT22;20215;53.130;6.408;2022-09-09T04:19:16;18.50;99.90
33931;DHT22;20215;53.130;6.408;2022-09-09T04:24:25;18.40;99.90
33931;DHT22;20215;53.130;6.408;2022-09-09T04:26:55;18.40;99.90
33931;DHT22;20215;53.130;6.408;2022-09-09T04:29:23;18.40;99.90
33931;DHT22;20215;53.130;6.408;2022-09-09T04:31:49;18.40;99.90
33931;DHT22;20215;53.130;6.408;2022-09-09T04:34:14;18.40;99.90
33931;DHT22;20215;53.130;6.408;2022-09-09T04:39:06;18.50;99.90
33931;DHT22;20215;53.130;6.408;2022-09-09T04:41:34;18.50;99.90
33931;DHT22;20215;53.130;6.408;2022-09-09T04:44:03;18.50;99.90
33931;DHT22;20215;53.130;6.408;2022-09-09T04:49:40;18.50;99.90
33931;DHT22;20215;53.130;6.408;2022-09-09T04:52:18;18.60;99.90
33931;DHT22;20215;53.130;6.408;2022-09-09T04:57:37;18.60;99.90
33931;DHT22;20215;53.130;6.408;2022-09-09T05:00:29;18.50;99.90
33931;DHT22;20215;53.130;6.408;2022-09-09T05:03:17;18.50;99.90
33931;DHT22;20215;53.130;6.408;2022-09-09T05:05:43;18.40;99.90
33931;DHT22;20215;53.130;6.408;2022-09-09T05:08:09;18.40;99.90
33931;DHT22;20215;53.130;6.408;2022-09-09T05:10:37;18.40;99.90
33931;DHT22;20215;53.130;6.408;2022-09-09T05:15:29;18.30;99.90
33931;DHT22;20215;53.130;6.408;2022-09-09T05:18:10;18.30;99.90
33931;DHT22;20215;53.130;6.408;2022-09-09T05:20:37;18.30;99.90
33931;DHT22;20215;53.130;6.408;2022-09-09T05:23:12;18.30;99.90
33931;DHT22;20215;53.130;6.408;2022-09-09T05:25:41;18.30;99.90
33931;DHT22;20215;53.130;6.408;2022-09-09T05:30:43;18.30;99.90
33931;DHT22;20215;53.130;6.408;2022-09-09T05:35:55;18.30;99.90
33931;DHT22;20215;53.130;6.408;2022-09-09T05:38:21;18.30;99.90
33931;DHT22;20215;53.130;6.408;2022-09-09T05:41:14;18.30;99.90
33931;DHT22;20215;53.130;6.408;2022-09-09T05:46:41;18.40;99.90
33931;DHT22;20215;53.130;6.408;2022-09-09T05:49:06;18.40;99.90
33931;DHT22;20215;53.130;6.408;2022-09-09T05:51:32;18.40;99.90
33931;DHT22;20215;53.130;6.408;2022-09-09T05:54:01;18.40;99.90
33931;DHT22;20215;53.130;6.408;2022-09-09T05:56:28;18.40;99.90
33931;DHT22;20215;53.130;6.408;2022-09-09T05:58:56;18.40;99.90
33931;DHT22;20215;53.130;6.408;2022-09-09T06:01:37;18.40;99.90
33931;DHT22;20215;53.130;6.408;2022-09-09T06:04:11;18.40;99.90
33931;DHT22;20215;53.130;6.408;2022-09-09T06:06:53;18.40;99.90
33931;DHT22;20215;53.130;6.408;2022-09-09T06:09:21;18.40;99.90
33931;DHT22;20215;53.130;6.408;2022-09-09T06:14:24;18.40;99.90
33931;DHT22;20215;53.130;6.408;2022-09-09T06:16:58;18.50;99.90
33931;DHT22;20215;53.130;6.408;2022-09-09T06:19:33;18.40;99.90
33931;DHT22;20215;53.130;6.408;2022-09-09T06:21:58;18.40;99.90
33931;DHT22;20215;53.130;6.408;2022-09-09T06:24:42;18.40;99.90
33931;DHT22;20215;53.130;6.408;2022-09-09T06:27:14;18.40;99.90
33931;DHT22;20215;53.130;6.408;2022-09-09T06:29:39;18.40;99.90
33931;DHT22;20215;53.130;6.408;2022-09-09T06:32:05;18.50;99.90
33931;DHT22;20215;53.130;6.408;2022-09-09T06:34:33;18.50;99.90
33931;DHT22;20215;53.130;6.408;2022-09-09T06:39:39;18.50;99.90
33931;DHT22;20215;53.130;6.408;2022-09-09T06:42:18;18.50;99.90
33931;DHT22;20215;53.130;6.408;2022-09-09T06:47:24;18.60;99.90
33931;DHT22;20215;53.130;6.408;2022-09-09T06:49:50;18.60;99.90
33931;DHT22;20215;53.130;6.408;2022-09-09T06:52:15;18.60;99.90
33931;DHT22;20215;53.130;6.408;2022-09-09T06:54:43;18.50;99.90
33931;DHT22;20215;53.130;6.408;2022-09-09T06:57:25;18.60;99.90
33931;DHT22;20215;53.130;6.408;2022-09-09T06:59:57;18.60;99.90
33931;DHT22;20215;53.130;6.408;2022-09-09T07:02:23;18.60;99.90
33931;DHT22;20215;53.130;6.408;2022-09-09T07:04:58;18.60;99.90
33931;DHT22;20215;53.130;6.408;2022-09-09T07:07:30;18.70;99.90
33931;DHT22;20215;53.130;6.408;2022-09-09T07:10:05;18.70;99.90
33931;DHT22;20215;53.130;6.408;2022-09-09T07:12:34;18.70;99.90
33931;DHT22;20215;53.130;6.408;2022-09-09T07:14:59;18.70;99.90
33931;DHT22;20215;53.130;6.408;2022-09-09T07:17:25;18.70;99.90
33931;DHT22;20215;53.130;6.408;2022-09-09T07:19:53;18.80;99.90
33931;DHT22;20215;53.130;6.408;2022-09-09T07:22:19;18.80;99.90
33931;DHT22;20215;53.130;6.408;2022-09-09T07:24:45;18.80;99.90
33931;DHT22;20215;53.130;6.408;2022-09-09T07:27:11;18.80;99.90
33931;DHT22;20215;53.130;6.408;2022-09-09T07:29:36;18.80;99.90
33931;DHT22;20215;53.130;6.408;2022-09-09T07:32:02;18.80;99.90
33931;DHT22;20215;53.130;6.408;2022-09-09T07:34:29;18.90;99.90
33931;DHT22;20215;53.130;6.408;2022-09-09T07:36:55;18.90;99.90
33931;DHT22;20215;53.130;6.408;2022-09-09T07:39:22;19.00;99.90
33931;DHT22;20215;53.130;6.408;2022-09-09T07:41:53;18.90;99.90
33931;DHT22;20215;53.130;6.408;2022-09-09T07:44:32;18.90;99.90
33931;DHT22;20215;53.130;6.408;2022-09-09T07:47:01;18.90;99.90
33931;DHT22;20215;53.130;6.408;2022-09-09T07:49:37;18.90;99.90
33931;DHT22;20215;53.130;6.408;2022-09-09T07:52:03;19.00;99.90
33931;DHT22;20215;53.130;6.408;2022-09-09T07:54:29;19.00;99.90
33931;DHT22;20215;53.130;6.408;2022-09-09T07:56:54;19.00;99.90
33931;DHT22;20215;53.130;6.408;2022-09-09T07:59:20;19.00;99.90
33931;DHT22;20215;53.130;6.408;2022-09-09T08:01:52;19.00;99.90
33931;DHT22;20215;53.130;6.408;2022-09-09T08:04:22;19.10;99.90
33931;DHT22;20215;53.130;6.408;2022-09-09T08:06:50;19.00;99.90
33931;DHT22;20215;53.130;6.408;2022-09-09T08:09:43;19.10;99.90
33931;DHT22;20215;53.130;6.408;2022-09-09T08:12:09;19.10;99.90
33931;DHT22;20215;53.130;6.408;2022-09-09T08:14:48;19.10;99.90
33931;DHT22;20215;53.130;6.408;2022-09-09T08:17:20;19.10;99.90
33931;DHT22;20215;53.130;6.408;2022-09-09T08:19:46;19.10;99.90
33931;DHT22;20215;53.130;6.408;2022-09-09T08:22:22;19.10;99.90
33931;DHT22;20215;53.130;6.408;2022-09-09T08:24:58;19.10;99.90
33931;DHT22;20215;53.130;6.408;2022-09-09T08:27:24;19.20;99.90
33931;DHT22;20215;53.130;6.408;2022-09-09T08:29:50;19.20;99.90
33931;DHT22;20215;53.130;6.408;2022-09-09T08:32:16;19.30;99.90
33931;DHT22;20215;53.130;6.408;2022-09-09T08:35:02;19.50;99.90
33931;DHT22;20215;53.130;6.408;2022-09-09T08:37:28;19.60;99.90
33931;DHT22;20215;53.130;6.408;2022-09-09T08:40:04;19.70;99.90
33931;DHT22;20215;53.130;6.408;2022-09-09T08:53:48;20.20;99.90
33931;DHT22;20215;53.130;6.408;2022-09-09T08:56:18;20.30;99.90
33931;DHT22;20215;53.130;6.408;2022-09-09T08:58:53;20.40;99.90
33931;DHT22;20215;53.130;6.408;2022-09-09T09:01:37;20.50;99.90
33931;DHT22;20215;53.130;6.408;2022-09-09T09:12:52;21.00;99.90
33931;DHT22;20215;53.130;6.408;2022-09-09T09:18:28;21.10;99.90
33931;DHT22;20215;53.130;6.408;2022-09-09T09:23:58;21.50;99.90
33931;DHT22;20215;53.130;6.408;2022-09-09T09:26:37;21.60;99.90
33931;DHT22;20215;53.130;6.408;2022-09-09T09:29:19;21.70;99.90
33931;DHT22;20215;53.130;6.408;2022-09-09T09:32:07;21.60;99.90
33931;DHT22;20215;53.130;6.408;2022-09-09T09:34:41;21.60;99.90
33931;DHT22;20215;53.130;6.408;2022-09-09T09:40:12;21.60;99.90
33931;DHT22;20215;53.130;6.408;2022-09-09T09:42:58;21.50;99.90
33931;DHT22;20215;53.130;6.408;2022-09-09T09:45:49;21.50;99.90
33931;DHT22;20215;53.130;6.408;2022-09-09T09:48:14;21.50;99.90
33931;DHT22;20215;53.130;6.408;2022-09-09T09:51:12;21.40;99.90
33931;DHT22;20215;53.130;6.408;2022-09-09T09:56:43;21.20;99.90
33931;DHT22;20215;53.130;6.408;2022-09-09T10:04:40;21.10;99.90
33931;DHT22;20215;53.130;6.408;2022-09-09T10:07:31;21.00;99.90
33931;DHT22;20215;53.130;6.408;2022-09-09T10:10:20;21.00;99.90
33931;DHT22;20215;53.130;6.408;2022-09-09T10:19:42;20.70;99.90
33931;DHT22;20215;53.130;6.408;2022-09-09T10:30:21;20.90;99.90
33931;DHT22;20215;53.130;6.408;2022-09-09T10:33:10;21.10;99.90
33931;DHT22;20215;53.130;6.408;2022-09-09T10:36:14;21.40;99.90
33931;DHT22;20215;53.130;6.408;2022-09-09T10:39:35;21.70;99.90
33931;DHT22;20215;53.130;6.408;2022-09-09T10:42:12;22.00;99.90
33931;DHT22;20215;53.130;6.408;2022-09-09T10:50:42;22.10;99.90
33931;DHT22;20215;53.130;6.408;2022-09-09T11:00:57;22.40;99.90
33931;DHT22;20215;53.130;6.408;2022-09-09T11:03:53;22.40;99.90
33931;DHT22;20215;53.130;6.408;2022-09-09T11:06:24;22.60;99.90
33931;DHT22;20215;53.130;6.408;2022-09-09T11:09:08;22.90;99.90
33931;DHT22;20215;53.130;6.408;2022-09-09T11:11:58;23.10;99.90
33931;DHT22;20215;53.130;6.408;2022-09-09T11:17:50;22.90;99.90
33931;DHT22;20215;53.130;6.408;2022-09-09T11:20:18;22.80;99.90
33931;DHT22;20215;53.130;6.408;2022-09-09T11:23:07;22.70;99.90
33931;DHT22;20215;53.130;6.408;2022-09-09T11:25:57;22.70;99.90
33931;DHT22;20215;53.130;6.408;2022-09-09T11:34:36;22.30;99.90
33931;DHT22;20215;53.130;6.408;2022-09-09T11:37:36;22.20;99.90
33931;DHT22;20215;53.130;6.408;2022-09-09T11:40:17;22.20;99.90
33931;DHT22;20215;53.130;6.408;2022-09-09T11:42:45;22.10;99.90
33931;DHT22;20215;53.130;6.408;2022-09-09T11:45:27;22.00;99.90
33931;DHT22;20215;53.130;6.408;2022-09-09T11:47:56;22.20;99.90
33931;DHT22;20215;53.130;6.408;2022-09-09T11:50:37;22.30;99.90
33931;DHT22;20215;53.130;6.408;2022-09-09T11:53:20;22.30;99.90
33931;DHT22;20215;53.130;6.408;2022-09-09T11:55:59;22.40;99.90
33931;DHT22;20215;53.130;6.408;2022-09-09T11:58:33;22.30;99.90
33931;DHT22;20215;53.130;6.408;2022-09-09T12:12:38;22.00;99.90
33931;DHT22;20215;53.130;6.408;2022-09-09T12:17:43;22.10;99.90
33931;DHT22;20215;53.130;6.408;2022-09-09T12:20:19;22.00;99.90
33931;DHT22;20215;53.130;6.408;2022-09-09T12:29:01;22.20;99.90
33931;DHT22;20215;53.130;6.408;2022-09-09T12:38:00;23.60;99.90
33931;DHT22;20215;53.130;6.408;2022-09-09T12:40:37;23.90;97.40
33931;DHT22;20215;53.130;6.408;2022-09-09T12:43:19;23.90;98.90
33931;DHT22;20215;53.130;6.408;2022-09-09T12:45:46;24.30;99.50
33931;DHT22;20215;53.130;6.408;2022-09-09T12:48:25;24.60;96.90
33931;DHT22;20215;53.130;6.408;2022-09-09T12:50:53;25.10;98.70
33931;DHT22;20215;53.130;6.408;2022-09-09T12:53:25;25.30;98.40
33931;DHT22;20215;53.130;6.408;2022-09-09T12:56:33;25.30;97.20
33931;DHT22;20215;53.130;6.408;2022-09-09T12:58:59;25.30;96.50
33931;DHT22;20215;53.130;6.408;2022-09-09T13:06:38;24.80;95.40
33931;DHT22;20215;53.130;6.408;2022-09-09T13:09:10;24.90;93.30
33931;DHT22;20215;53.130;6.408;2022-09-09T13:12:06;24.90;95.70
33931;DHT22;20215;53.130;6.408;2022-09-09T13:15:26;24.70;87.30
33931;DHT22;20215;53.130;6.408;2022-09-09T13:17:59;24.30;94.80
33931;DHT22;20215;53.130;6.408;2022-09-09T13:23:30;24.00;92.80
33931;DHT22;20215;53.130;6.408;2022-09-09T13:26:01;23.70;95.40
33931;DHT22;20215;53.130;6.408;2022-09-09T13:28:30;23.40;93.00
33931;DHT22;20215;53.130;6.408;2022-09-09T13:30:58;23.20;98.40
33931;DHT22;20215;53.130;6.408;2022-09-09T13:33:55;23.00;98.90
33931;DHT22;20215;53.130;6.408;2022-09-09T13:36:46;22.80;97.40
33931;DHT22;20215;53.130;6.408;2022-09-09T13:39:18;22.60;94.60
33931;DHT22;20215;53.130;6.408;2022-09-09T13:41:46;22.50;96.90
33931;DHT22;20215;53.130;6.408;2022-09-09T13:44:42;22.80;99.90
33931;DHT22;20215;53.130;6.408;2022-09-09T13:47:43;24.10;99.90
33931;DHT22;20215;53.130;6.408;2022-09-09T13:50:24;25.20;97.60
33931;DHT22;20215;53.130;6.408;2022-09-09T13:53:10;26.10;96.60
33931;DHT22;20215;53.130;6.408;2022-09-09T13:55:36;26.80;92.80
33931;DHT22;20215;53.130;6.408;2022-09-09T13:58:03;27.00;91.90
33931;DHT22;20215;53.130;6.408;2022-09-09T14:00:53;26.60;92.90
33931;DHT22;20215;53.130;6.408;2022-09-09T14:03:19;25.80;91.50
33931;DHT22;20215;53.130;6.408;2022-09-09T14:05:46;25.10;92.90
33931;DHT22;20215;53.130;6.408;2022-09-09T14:08:41;24.60;89.70
33931;DHT22;20215;53.130;6.408;2022-09-09T14:11:12;24.10;94.60
33931;DHT22;20215;53.130;6.408;2022-09-09T14:13:37;23.60;94.20
33931;DHT22;20215;53.130;6.408;2022-09-09T14:16:06;23.10;97.90
33931;DHT22;20215;53.130;6.408;2022-09-09T14:18:35;22.70;95.80
33931;DHT22;20215;53.130;6.408;2022-09-09T14:21:06;22.20;98.80
33931;DHT22;20215;53.130;6.408;2022-09-09T14:23:45;21.90;96.80
33931;DHT22;20215;53.130;6.408;2022-09-09T14:26:16;21.70;99.90
33931;DHT22;20215;53.130;6.408;2022-09-09T14:28:50;21.40;98.60
33931;DHT22;20215;53.130;6.408;2022-09-09T14:31:17;21.10;99.90
33931;DHT22;20215;53.130;6.408;2022-09-09T14:33:52;21.00;99.90
33931;DHT22;20215;53.130;6.408;2022-09-09T14:36:30;20.90;99.90
33931;DHT22;20215;53.130;6.408;2022-09-09T14:38:56;21.20;99.90
33931;DHT22;20215;53.130;6.408;2022-09-09T14:41:24;21.60;99.90
33931;DHT22;20215;53.130;6.408;2022-09-09T14:43:51;22.10;99.90
33931;DHT22;20215;53.130;6.408;2022-09-09T14:46:18;22.60;98.80
33931;DHT22;20215;53.130;6.408;2022-09-09T14:49:16;23.00;97.80
33931;DHT22;20215;53.130;6.408;2022-09-09T14:51:42;23.40;96.10
33931;DHT22;20215;53.130;6.408;2022-09-09T14:54:08;23.70;95.80
33931;DHT22;20215;53.130;6.408;2022-09-09T14:56:49;23.90;94.90
33931;DHT22;20215;53.130;6.408;2022-09-09T14:59:15;24.10;94.40
33931;DHT22;20215;53.130;6.408;2022-09-09T15:02:24;24.30;94.20
33931;DHT22;20215;53.130;6.408;2022-09-09T15:07:28;24.50;93.20
33931;DHT22;20215;53.130;6.408;2022-09-09T15:13:10;24.60;92.70
33931;DHT22;20215;53.130;6.408;2022-09-09T15:15:44;24.80;91.40
33931;DHT22;20215;53.130;6.408;2022-09-09T15:18:10;24.80;91.40
33931;DHT22;20215;53.130;6.408;2022-09-09T15:20:51;24.80;92.00
33931;DHT22;20215;53.130;6.408;2022-09-09T15:23:39;24.80;91.00
33931;DHT22;20215;53.130;6.408;2022-09-09T15:26:05;24.90;90.90
33931;DHT22;20215;53.130;6.408;2022-09-09T15:28:47;24.90;91.50
33931;DHT22;20215;53.130;6.408;2022-09-09T15:31:24;24.90;90.80
33931;DHT22;20215;53.130;6.408;2022-09-09T15:39:27;24.90;91.20
33931;DHT22;20215;53.130;6.408;2022-09-09T15:42:13;24.90;90.30
33931;DHT22;20215;53.130;6.408;2022-09-09T15:44:45;24.80;90.80
33931;DHT22;20215;53.130;6.408;2022-09-09T15:53:09;24.80;90.20
33931;DHT22;20215;53.130;6.408;2022-09-09T15:55:37;24.80;89.20
33931;DHT22;20215;53.130;6.408;2022-09-09T15:58:06;24.80;90.00
33931;DHT22;20215;53.130;6.408;2022-09-09T16:00:33;24.80;89.00
33931;DHT22;20215;53.130;6.408;2022-09-09T16:02:59;24.80;89.10
33931;DHT22;20215;53.130;6.408;2022-09-09T16:05:25;24.70;88.90
33931;DHT22;20215;53.130;6.408;2022-09-09T16:07:52;24.70;88.60
33931;DHT22;20215;53.130;6.408;2022-09-09T16:10:23;24.70;87.60
33931;DHT22;20215;53.130;6.408;2022-09-09T16:12:49;24.70;86.00
33931;DHT22;20215;53.130;6.408;2022-09-09T16:15:15;24.70;86.80
33931;DHT22;20215;53.130;6.408;2022-09-09T16:17:46;24.70;85.90
33931;DHT22;20215;53.130;6.408;2022-09-09T16:20:18;24.70;85.10
33931;DHT22;20215;53.130;6.408;2022-09-09T16:22:44;24.60;84.90
33931;DHT22;20215;53.130;6.408;2022-09-09T16:25:09;24.60;84.70
33931;DHT22;20215;53.130;6.408;2022-09-09T16:27:36;24.60;86.60
33931;DHT22;20215;53.130;6.408;2022-09-09T16:30:01;24.60;84.50
33931;DHT22;20215;53.130;6.408;2022-09-09T16:32:27;24.60;83.90
33931;DHT22;20215;53.130;6.408;2022-09-09T16:34:56;24.60;84.50
33931;DHT22;20215;53.130;6.408;2022-09-09T16:37:22;24.60;83.00
33931;DHT22;20215;53.130;6.408;2022-09-09T16:39:47;24.60;83.70
33931;DHT22;20215;53.130;6.408;2022-09-09T16:42:13;24.60;85.00
33931;DHT22;20215;53.130;6.408;2022-09-09T16:44:45;24.60;83.30
33931;DHT22;20215;53.130;6.408;2022-09-09T16:47:16;24.60;82.90
33931;DHT22;20215;53.130;6.408;2022-09-09T16:49:46;24.50;83.40
33931;DHT22;20215;53.130;6.408;2022-09-09T16:54:45;24.50;82.70
33931;DHT22;20215;53.130;6.408;2022-09-09T16:57:11;24.50;82.50
33931;DHT22;20215;53.130;6.408;2022-09-09T16:59:36;24.50;82.20
33931;DHT22;20215;53.130;6.408;2022-09-09T17:02:08;24.50;82.80
33931;DHT22;20215;53.130;6.408;2022-09-09T17:04:35;24.50;81.90
33931;DHT22;20215;53.130;6.408;2022-09-09T17:07:01;24.50;81.80
33931;DHT22;20215;53.130;6.408;2022-09-09T17:09:27;24.40;81.70
33931;DHT22;20215;53.130;6.408;2022-09-09T17:17:04;24.40;81.50
33931;DHT22;20215;53.130;6.408;2022-09-09T17:19:31;24.40;81.50
33931;DHT22;20215;53.130;6.408;2022-09-09T17:21:56;24.40;81.60
33931;DHT22;20215;53.130;6.408;2022-09-09T17:24:24;24.40;81.50
33931;DHT22;20215;53.130;6.408;2022-09-09T17:26:52;24.40;81.30
33931;DHT22;20215;53.130;6.408;2022-09-09T17:29:19;24.40;81.50
33931;DHT22;20215;53.130;6.408;2022-09-09T17:31:53;24.40;81.30
33931;DHT22;20215;53.130;6.408;2022-09-09T17:37:41;24.30;80.70
33931;DHT22;20215;53.130;6.408;2022-09-09T17:40:07;24.30;81.00
33931;DHT22;20215;53.130;6.408;2022-09-09T17:42:55;24.30;81.10
33931;DHT22;20215;53.130;6.408;2022-09-09T17:45:39;24.30;81.20
33931;DHT22;20215;53.130;6.408;2022-09-09T17:48:05;24.30;81.20
33931;DHT22;20215;53.130;6.408;2022-09-09T17:50:55;24.20;81.20
33931;DHT22;20215;53.130;6.408;2022-09-09T17:53:59;24.20;80.90
33931;DHT22;20215;53.130;6.408;2022-09-09T17:56:44;24.20;81.10
33931;DHT22;20215;53.130;6.408;2022-09-09T17:59:17;24.20;81.00
33931;DHT22;20215;53.130;6.408;2022-09-09T18:01:55;24.20;81.40
33931;DHT22;20215;53.130;6.408;2022-09-09T18:04:21;24.20;81.00
33931;DHT22;20215;53.130;6.408;2022-09-09T18:06:59;24.10;81.60
33931;DHT22;20215;53.130;6.408;2022-09-09T18:09:30;24.10;81.20
33931;DHT22;20215;53.130;6.408;2022-09-09T18:12:03;24.10;81.30
33931;DHT22;20215;53.130;6.408;2022-09-09T18:14:30;24.20;81.00
33931;DHT22;20215;53.130;6.408;2022-09-09T18:17:00;24.10;81.10
33931;DHT22;20215;53.130;6.408;2022-09-09T18:19:28;24.10;81.10
33931;DHT22;20215;53.130;6.408;2022-09-09T18:21:55;24.10;81.30
33931;DHT22;20215;53.130;6.408;2022-09-09T18:24:21;24.10;81.30
33931;DHT22;20215;53.130;6.408;2022-09-09T18:26:50;24.10;81.30
33931;DHT22;20215;53.130;6.408;2022-09-09T18:29:28;24.10;81.20
33931;DHT22;20215;53.130;6.408;2022-09-09T18:34:34;24.00;81.80
33931;DHT22;20215;53.130;6.408;2022-09-09T18:37:06;24.10;82.40
33931;DHT22;20215;53.130;6.408;2022-09-09T18:39:32;24.00;82.70
33931;DHT22;20215;53.130;6.408;2022-09-09T18:42:10;24.00;82.90
33931;DHT22;20215;53.130;6.408;2022-09-09T18:49:46;24.00;84.10
33931;DHT22;20215;53.130;6.408;2022-09-09T18:52:24;24.00;84.40
33931;DHT22;20215;53.130;6.408;2022-09-09T18:54:50;24.00;84.90
33931;DHT22;20215;53.130;6.408;2022-09-09T18:57:34;24.00;84.90
33931;DHT22;20215;53.130;6.408;2022-09-09T19:00:00;24.00;85.20
33931;DHT22;20215;53.130;6.408;2022-09-09T19:02:32;24.00;85.20
33931;DHT22;20215;53.130;6.408;2022-09-09T19:05:02;24.00;85.20
33931;DHT22;20215;53.130;6.408;2022-09-09T19:07:28;24.00;85.30
33931;DHT22;20215;53.130;6.408;2022-09-09T19:09:53;24.00;85.60
33931;DHT22;20215;53.130;6.408;2022-09-09T19:12:22;23.90;85.60
33931;DHT22;20215;53.130;6.408;2022-09-09T19:17:27;23.90;85.70
33931;DHT22;20215;53.130;6.408;2022-09-09T19:28:09;23.90;86.00
33931;DHT22;20215;53.130;6.408;2022-09-09T19:30:38;23.90;85.50
33931;DHT22;20215;53.130;6.408;2022-09-09T19:33:04;23.90;85.90
33931;DHT22;20215;53.130;6.408;2022-09-09T19:35:30;23.80;85.80
33931;DHT22;20215;53.130;6.408;2022-09-09T19:38:14;23.80;86.20
33931;DHT22;20215;53.130;6.408;2022-09-09T19:40:40;23.80;85.60
33931;DHT22;20215;53.130;6.408;2022-09-09T19:43:06;23.80;85.90
33931;DHT22;20215;53.130;6.408;2022-09-09T19:45:37;23.80;86.40
33931;DHT22;20215;53.130;6.408;2022-09-09T19:50:40;23.80;85.90
33931;DHT22;20215;53.130;6.408;2022-09-09T19:53:21;23.80;86.20
33931;DHT22;20215;53.130;6.408;2022-09-09T19:56:01;23.80;86.30
33931;DHT22;20215;53.130;6.408;2022-09-09T19:58:32;23.80;85.90
33931;DHT22;20215;53.130;6.408;2022-09-09T20:04:13;23.70;85.90
33931;DHT22;20215;53.130;6.408;2022-09-09T20:06:53;23.80;85.80
33931;DHT22;20215;53.130;6.408;2022-09-09T20:09:30;23.70;86.00
33931;DHT22;20215;53.130;6.408;2022-09-09T20:11:58;23.70;85.90
33931;DHT22;20215;53.130;6.408;2022-09-09T20:14:24;23.70;86.10
33931;DHT22;20215;53.130;6.408;2022-09-09T20:17:05;23.70;86.20
33931;DHT22;20215;53.130;6.408;2022-09-09T20:19:43;23.70;85.90
33931;DHT22;20215;53.130;6.408;2022-09-09T20:22:09;23.70;86.00
33931;DHT22;20215;53.130;6.408;2022-09-09T20:24:35;23.70;86.10
33931;DHT22;20215;53.130;6.408;2022-09-09T20:27:16;23.70;85.90
33931;DHT22;20215;53.130;6.408;2022-09-09T20:29:45;23.70;85.90
33931;DHT22;20215;53.130;6.408;2022-09-09T20:32:20;23.70;85.80
33931;DHT22;20215;53.130;6.408;2022-09-09T20:34:49;23.60;85.60
33931;DHT22;20215;53.130;6.408;2022-09-09T20:37:22;23.60;85.80
33931;DHT22;20215;53.130;6.408;2022-09-09T20:39:51;23.60;85.60
33931;DHT22;20215;53.130;6.408;2022-09-09T20:42:29;23.60;85.80
33931;DHT22;20215;53.130;6.408;2022-09-09T20:45:00;23.60;86.10
33931;DHT22;20215;53.130;6.408;2022-09-09T20:47:28;23.60;85.50
33931;DHT22;20215;53.130;6.408;2022-09-09T20:49:54;23.60;85.60
33931;DHT22;20215;53.130;6.408;2022-09-09T20:52:29;23.60;85.60
33931;DHT22;20215;53.130;6.408;2022-09-09T20:54:54;23.60;85.40
33931;DHT22;20215;53.130;6.408;2022-09-09T20:57:30;23.60;85.50
33931;DHT22;20215;53.130;6.408;2022-09-09T21:00:34;23.60;85.30
33931;DHT22;20215;53.130;6.408;2022-09-09T21:03:06;23.60;85.20
33931;DHT22;20215;53.130;6.408;2022-09-09T21:05:41;23.60;85.40
33931;DHT22;20215;53.130;6.408;2022-09-09T21:08:22;23.60;85.10
33931;DHT22;20215;53.130;6.408;2022-09-09T21:10:47;23.60;85.20
33931;DHT22;20215;53.130;6.408;2022-09-09T21:13:25;23.60;85.30
33931;DHT22;20215;53.130;6.408;2022-09-09T21:18:41;23.50;85.20
33931;DHT22;20215;53.130;6.408;2022-09-09T21:21:21;23.50;85.10
33931;DHT22;20215;53.130;6.408;2022-09-09T21:24:02;23.50;84.90
33931;DHT22;20215;53.130;6.408;2022-09-09T21:26:32;23.50;85.00